createdAt,value
2022-08-28T00:00:02.903Z,17.41
2022-08-28T00:02:29.284Z,17.42
2022-08-28T00:04:55.644Z,17.41
2022-08-28T00:07:22.126Z,17.39
2022-08-28T00:09:48.458Z,17.37
2022-08-28T00:12:14.783Z,17.38
2022-08-28T00:14:41.239Z,17.39
2022-08-28T00:17:07.681Z,17.36
2022-08-28T00:19:38.352Z,17.34
2022-08-28T00:22:05.026Z,17.31
2022-08-28T00:24:31.316Z,17.26
2022-08-28T00:26:57.788Z,17.25
2022-08-28T00:29:24.290Z,17.21
2022-08-28T00:31:50.653Z,17.17
2022-08-28T00:34:16.919Z,17.10
2022-08-28T00:36:43.378Z,17.08
2022-08-28T00:39:09.845Z,17.07
2022-08-28T00:41:36.547Z,17.03
2022-08-28T00:44:02.884Z,17.02
2022-08-28T00:46:29.179Z,17.01
2022-08-28T00:48:55.481Z,17.00
2022-08-28T00:51:21.714Z,16.97
2022-08-28T00:53:47.962Z,16.95
2022-08-28T00:56:14.206Z,16.97
2022-08-28T00:58:40.440Z,16.95
2022-08-28T01:01:06.685Z,16.94
2022-08-28T01:03:32.915Z,16.94
2022-08-28T01:05:59.143Z,16.94
2022-08-28T01:08:25.361Z,16.91
2022-08-28T01:10:56.709Z,16.88
2022-08-28T01:13:22.938Z,16.88
2022-08-28T01:15:49.354Z,16.82
2022-08-28T01:18:15.794Z,16.78
2022-08-28T01:20:42.252Z,16.77
2022-08-28T01:23:08.481Z,16.77
2022-08-28T01:25:34.751Z,16.77
2022-08-28T01:28:01.027Z,16.77
2022-08-28T01:30:27.273Z,16.75
2022-08-28T01:32:53.500Z,16.74
2022-08-28T01:35:19.869Z,16.71
2022-08-28T01:37:46.220Z,16.63
2022-08-28T01:40:12.533Z,16.63
2022-08-28T01:42:38.806Z,16.65
2022-08-28T01:45:05.053Z,16.57
2022-08-28T01:47:31.378Z,16.52
2022-08-28T01:49:57.611Z,16.52
2022-08-28T01:52:25.453Z,16.52
2022-08-28T01:54:52.805Z,16.52
2022-08-28T01:57:19.084Z,16.50
2022-08-28T01:59:48.813Z,16.49
2022-08-28T02:02:15.045Z,16.49
2022-08-28T02:04:43.340Z,16.51
2022-08-28T02:07:11.257Z,16.55
2022-08-28T02:09:37.553Z,16.55
2022-08-28T02:12:03.769Z,16.56
2022-08-28T02:14:30.065Z,16.55
2022-08-28T02:16:56.307Z,16.56
2022-08-28T02:19:22.547Z,16.58
2022-08-28T02:21:48.765Z,16.60
2022-08-28T02:24:14.988Z,16.60
2022-08-28T02:26:41.258Z,16.62
2022-08-28T02:29:07.491Z,16.62
2022-08-28T02:31:33.758Z,16.61
2022-08-28T02:33:59.983Z,16.64
2022-08-28T02:36:26.235Z,16.64
2022-08-28T02:38:57.366Z,16.66
2022-08-28T02:41:24.059Z,16.66
2022-08-28T02:43:50.289Z,16.67
2022-08-28T02:46:16.619Z,16.67
2022-08-28T02:48:42.909Z,16.67
2022-08-28T02:51:09.329Z,16.66
2022-08-28T02:53:35.562Z,16.69
2022-08-28T02:56:01.821Z,16.70
2022-08-28T02:58:28.055Z,16.69
2022-08-28T03:00:54.309Z,16.67
2022-08-28T03:03:20.553Z,16.69
2022-08-28T03:05:46.805Z,16.69
2022-08-28T03:08:13.174Z,16.68
2022-08-28T03:10:39.702Z,16.68
2022-08-28T03:13:05.936Z,16.68
2022-08-28T03:15:32.213Z,16.63
2022-08-28T03:17:58.457Z,16.62
2022-08-28T03:20:24.705Z,16.61
2022-08-28T03:22:50.963Z,16.51
2022-08-28T03:25:17.232Z,16.43
2022-08-28T03:27:43.456Z,16.39
2022-08-28T03:30:10.469Z,16.33
2022-08-28T03:32:36.714Z,16.31
2022-08-28T03:35:03.004Z,16.28
2022-08-28T03:37:29.312Z,16.24
2022-08-28T03:39:55.702Z,16.23
2022-08-28T03:42:22.104Z,16.20
2022-08-28T03:44:48.697Z,16.19
2022-08-28T03:47:14.965Z,16.17
2022-08-28T03:49:41.872Z,16.17
2022-08-28T03:52:08.143Z,16.17
2022-08-28T03:54:34.474Z,16.13
2022-08-28T03:57:00.746Z,16.11
2022-08-28T03:59:31.786Z,16.09
2022-08-28T04:02:01.271Z,16.06
2022-08-28T04:04:27.596Z,16.02
2022-08-28T04:06:53.941Z,16.04
2022-08-28T04:09:20.247Z,16.01
2022-08-28T04:11:46.552Z,15.99
2022-08-28T04:14:12.862Z,15.97
2022-08-28T04:16:39.213Z,15.96
2022-08-28T04:19:05.593Z,15.97
2022-08-28T04:21:32.082Z,15.95
2022-08-28T04:23:58.391Z,15.94
2022-08-28T04:26:24.640Z,15.92
2022-08-28T04:28:50.986Z,15.92
2022-08-28T04:31:32.158Z,15.88
2022-08-28T04:33:59.184Z,15.86
2022-08-28T04:36:25.454Z,15.84
2022-08-28T04:38:51.961Z,15.83
2022-08-28T04:41:18.319Z,15.82
2022-08-28T04:43:44.617Z,15.83
2022-08-28T04:46:11.603Z,15.81
2022-08-28T04:48:38.002Z,15.79
2022-08-28T04:51:04.399Z,15.79
2022-08-28T04:53:30.860Z,15.79
2022-08-28T04:55:57.339Z,15.79
2022-08-28T04:58:24.373Z,15.78
2022-08-28T05:00:50.994Z,15.76
2022-08-28T05:03:17.389Z,15.75
2022-08-28T05:05:43.741Z,15.70
2022-08-28T05:08:10.175Z,15.65
2022-08-28T05:10:36.473Z,15.67
2022-08-28T05:13:02.768Z,15.68
2022-08-28T05:15:29.277Z,15.70
2022-08-28T05:17:55.629Z,15.69
2022-08-28T05:20:22.416Z,15.67
2022-08-28T05:22:48.703Z,15.67
2022-08-28T05:25:15.017Z,15.67
2022-08-28T05:27:41.356Z,15.66
2022-08-28T05:30:07.837Z,15.63
2022-08-28T05:32:34.199Z,15.63
2022-08-28T05:35:00.531Z,15.65
2022-08-28T05:37:26.974Z,15.65
2022-08-28T05:39:53.282Z,15.66
2022-08-28T05:42:19.575Z,15.68
2022-08-28T05:44:45.910Z,15.66
2022-08-28T05:47:12.391Z,15.62
2022-08-28T05:49:38.720Z,15.59
2022-08-28T05:52:05.208Z,15.59
2022-08-28T05:54:31.591Z,15.61
2022-08-28T05:56:58.247Z,15.60
2022-08-28T05:59:24.658Z,15.58
2022-08-28T06:01:51.075Z,15.59
2022-08-28T06:04:17.804Z,15.57
2022-08-28T06:06:44.216Z,15.60
2022-08-28T06:09:10.528Z,15.61
2022-08-28T06:11:36.960Z,15.58
2022-08-28T06:14:05.347Z,15.60
2022-08-28T06:16:32.332Z,15.63
2022-08-28T06:18:58.794Z,15.58
2022-08-28T06:21:34.730Z,15.49
2022-08-28T06:24:01.003Z,15.41
2022-08-28T06:26:27.297Z,15.36
2022-08-28T06:28:53.699Z,15.29
2022-08-28T06:31:24.732Z,15.22
2022-08-28T06:33:52.886Z,15.19
2022-08-28T06:36:19.225Z,15.22
2022-08-28T06:38:45.613Z,15.12
2022-08-28T06:41:12.307Z,15.11
2022-08-28T06:43:38.616Z,15.09
2022-08-28T06:46:04.892Z,15.08
2022-08-28T06:48:31.297Z,15.10
2022-08-28T06:50:57.638Z,15.15
2022-08-28T06:53:23.945Z,15.21
2022-08-28T06:55:50.280Z,15.32
2022-08-28T06:58:16.613Z,15.41
2022-08-28T07:00:44.002Z,15.49
2022-08-28T07:03:10.307Z,15.58
2022-08-28T07:05:36.625Z,15.69
2022-08-28T07:08:02.912Z,15.82
2022-08-28T07:10:29.267Z,15.89
2022-08-28T07:12:55.565Z,15.91
2022-08-28T07:15:21.920Z,15.75
2022-08-28T07:17:48.162Z,15.79
2022-08-28T07:20:14.405Z,15.84
2022-08-28T07:22:40.631Z,15.86
2022-08-28T07:25:06.886Z,15.89
2022-08-28T07:27:33.260Z,15.88
2022-08-28T07:29:59.525Z,15.92
2022-08-28T07:32:25.766Z,15.88
2022-08-28T07:34:52.119Z,15.93
2022-08-28T07:37:18.744Z,15.93
2022-08-28T07:39:44.987Z,15.96
2022-08-28T07:42:11.204Z,16.00
2022-08-28T07:44:37.451Z,16.11
2022-08-28T07:47:03.710Z,16.16
2022-08-28T07:49:30.056Z,16.05
2022-08-28T07:51:56.306Z,16.00
2022-08-28T07:54:22.600Z,16.05
2022-08-28T07:56:48.820Z,16.01
2022-08-28T07:59:16.972Z,15.98
2022-08-28T08:01:43.660Z,16.09
2022-08-28T08:04:09.933Z,16.22
2022-08-28T08:06:36.281Z,16.18
2022-08-28T08:09:02.544Z,16.11
2022-08-28T08:11:32.447Z,16.18
2022-08-28T08:13:59.038Z,16.19
2022-08-28T08:16:25.381Z,16.25
2022-08-28T08:18:51.623Z,16.25
2022-08-28T08:21:18.020Z,16.30
2022-08-28T08:23:44.270Z,16.37
2022-08-28T08:26:10.495Z,16.55
2022-08-28T08:28:36.749Z,16.62
2022-08-28T08:31:03.066Z,16.72
2022-08-28T08:33:29.505Z,16.77
2022-08-28T08:35:55.736Z,16.74
2022-08-28T08:38:22.006Z,16.69
2022-08-28T08:40:48.448Z,16.64
2022-08-28T08:43:14.789Z,16.79
2022-08-28T08:45:42.089Z,16.84
2022-08-28T08:48:09.563Z,16.88
2022-08-28T08:50:37.234Z,16.89
2022-08-28T08:53:03.535Z,16.81
2022-08-28T08:55:29.976Z,16.89
2022-08-28T08:57:56.372Z,16.93
2022-08-28T09:00:22.687Z,16.94
2022-08-28T09:02:49.041Z,16.90
2022-08-28T09:05:15.402Z,16.95
2022-08-28T09:07:42.182Z,16.97
2022-08-28T09:10:08.638Z,16.86
2022-08-28T09:12:34.971Z,16.96
2022-08-28T09:15:01.198Z,16.91
2022-08-28T09:17:27.443Z,16.88
2022-08-28T09:19:53.664Z,16.86
2022-08-28T09:22:19.887Z,16.75
2022-08-28T09:24:46.676Z,16.71
2022-08-28T09:27:14.480Z,16.66
2022-08-28T09:29:40.849Z,16.55
2022-08-28T09:32:07.383Z,16.62
2022-08-28T09:34:38.594Z,16.69
2022-08-28T09:37:05.120Z,16.80
2022-08-28T09:39:31.392Z,16.84
2022-08-28T09:41:57.709Z,16.83
2022-08-28T09:44:23.942Z,16.77
2022-08-28T09:46:50.292Z,16.64
2022-08-28T09:49:16.514Z,16.65
2022-08-28T09:51:42.767Z,16.72
2022-08-28T09:54:09.079Z,16.70
2022-08-28T09:56:35.349Z,16.70
2022-08-28T09:59:01.637Z,16.86
2022-08-28T10:01:27.954Z,16.91
2022-08-28T10:03:54.318Z,16.97
2022-08-28T10:06:20.588Z,16.91
2022-08-28T10:08:46.825Z,16.90
2022-08-28T10:11:13.045Z,16.99
2022-08-28T10:13:39.288Z,17.03
2022-08-28T10:16:06.221Z,17.00
2022-08-28T10:18:32.654Z,16.97
2022-08-28T10:21:00.367Z,17.03
2022-08-28T10:23:26.609Z,17.17
2022-08-28T10:25:52.831Z,17.16
2022-08-28T10:28:19.101Z,16.81
2022-08-28T10:30:45.420Z,16.94
2022-08-28T10:33:11.701Z,16.86
2022-08-28T10:35:37.932Z,16.94
2022-08-28T10:38:04.159Z,16.98
2022-08-28T10:40:30.416Z,17.07
2022-08-28T10:42:56.717Z,17.04
2022-08-28T10:45:22.970Z,17.14
2022-08-28T10:47:49.203Z,17.17
2022-08-28T10:50:15.446Z,17.21
2022-08-28T10:52:41.687Z,17.20
2022-08-28T10:55:07.915Z,17.34
2022-08-28T10:57:38.865Z,17.43
2022-08-28T11:00:06.063Z,17.30
2022-08-28T11:02:32.429Z,17.37
2022-08-28T11:04:58.951Z,17.37
2022-08-28T11:07:25.235Z,17.18
2022-08-28T11:09:51.481Z,17.07
2022-08-28T11:12:17.708Z,17.10
2022-08-28T11:14:47.767Z,17.13
2022-08-28T11:17:14.948Z,17.19
2022-08-28T11:19:44.226Z,17.13
2022-08-28T11:22:11.786Z,17.11
2022-08-28T11:24:38.001Z,17.06
2022-08-28T11:27:04.707Z,16.99
2022-08-28T11:29:30.933Z,16.94
2022-08-28T11:31:57.170Z,16.95
2022-08-28T11:34:23.399Z,16.94
2022-08-28T11:36:50.184Z,16.79
2022-08-28T11:39:16.396Z,16.79
2022-08-28T11:41:42.714Z,16.82
2022-08-28T11:44:08.999Z,16.80
2022-08-28T11:46:35.316Z,16.88
2022-08-28T11:49:01.608Z,16.89
2022-08-28T11:51:27.969Z,16.73
2022-08-28T11:53:54.485Z,16.72
2022-08-28T11:56:29.069Z,16.68
2022-08-28T11:58:58.025Z,16.67
2022-08-28T12:01:24.561Z,16.62
2022-08-28T12:03:50.937Z,16.60
2022-08-28T12:06:17.271Z,16.48
2022-08-28T12:08:43.558Z,16.43
2022-08-28T12:11:09.856Z,16.38
2022-08-28T12:13:36.143Z,16.40
2022-08-28T12:16:02.639Z,16.43
2022-08-28T12:18:28.960Z,16.42
2022-08-28T12:20:55.342Z,16.45
2022-08-28T12:23:21.635Z,16.51
2022-08-28T12:25:47.946Z,16.54
2022-08-28T12:28:14.228Z,16.61
2022-08-28T12:30:40.570Z,16.68
2022-08-28T12:33:07.066Z,16.75
2022-08-28T12:35:33.401Z,16.71
2022-08-28T12:37:59.745Z,16.72
2022-08-28T12:40:26.103Z,16.52
2022-08-28T12:42:55.193Z,16.52
2022-08-28T12:45:22.098Z,16.56
2022-08-28T12:47:48.620Z,16.60
2022-08-28T12:50:14.979Z,16.56
2022-08-28T12:52:41.512Z,16.56
2022-08-28T12:55:08.026Z,16.59
2022-08-28T12:57:36.841Z,16.60
2022-08-28T13:00:03.164Z,16.70
2022-08-28T13:02:29.737Z,16.69
2022-08-28T13:04:57.252Z,16.69
2022-08-28T13:07:26.921Z,16.79
2022-08-28T13:09:53.249Z,16.84
2022-08-28T13:12:19.592Z,16.83
2022-08-28T13:14:45.866Z,16.75
2022-08-28T13:17:12.245Z,16.86
2022-08-28T13:19:38.582Z,16.94
2022-08-28T13:22:04.910Z,16.94
2022-08-28T13:24:31.229Z,16.89
2022-08-28T13:26:57.482Z,16.87
2022-08-28T13:29:23.843Z,16.94
2022-08-28T13:31:51.080Z,16.96
2022-08-28T13:34:17.442Z,16.95
2022-08-28T13:36:43.751Z,17.00
2022-08-28T13:39:10.036Z,16.99
2022-08-28T13:41:36.426Z,17.06
2022-08-28T13:44:02.798Z,17.12
2022-08-28T13:46:29.186Z,17.13
2022-08-28T13:48:55.482Z,17.11
2022-08-28T13:51:21.787Z,17.38
2022-08-28T13:53:48.068Z,17.73
2022-08-28T13:56:15.059Z,18.22
2022-08-28T13:58:41.333Z,18.47
2022-08-28T14:01:07.718Z,18.71
2022-08-28T14:03:33.961Z,18.90
2022-08-28T14:06:00.986Z,18.53
2022-08-28T14:08:27.316Z,18.39
2022-08-28T14:10:53.673Z,18.89
2022-08-28T14:13:19.940Z,19.56
2022-08-28T14:15:46.238Z,19.23
2022-08-28T14:18:12.563Z,19.45
2022-08-28T14:20:38.841Z,19.19
2022-08-28T14:23:05.147Z,18.99
2022-08-28T14:25:33.770Z,19.12
2022-08-28T14:28:03.454Z,19.39
2022-08-28T14:30:29.861Z,19.87
2022-08-28T14:32:56.196Z,20.26
2022-08-28T14:35:24.680Z,20.45
2022-08-28T14:37:51.177Z,20.63
2022-08-28T14:40:17.505Z,20.40
2022-08-28T14:42:44.874Z,20.43
2022-08-28T14:45:11.193Z,20.56
2022-08-28T14:47:37.518Z,20.74
2022-08-28T14:50:03.835Z,20.63
2022-08-28T14:52:30.213Z,20.67
2022-08-28T14:54:56.498Z,20.94
2022-08-28T14:57:22.994Z,21.10
2022-08-28T14:59:49.245Z,21.32
2022-08-28T15:02:15.543Z,21.59
2022-08-28T15:04:42.016Z,21.23
2022-08-28T15:07:08.541Z,21.36
2022-08-28T15:09:34.825Z,21.35
2022-08-28T15:12:01.165Z,21.54
2022-08-28T15:14:27.441Z,21.63
2022-08-28T15:16:53.902Z,21.14
2022-08-28T15:19:20.272Z,21.00
2022-08-28T15:21:46.608Z,21.03
2022-08-28T15:24:12.885Z,20.73
2022-08-28T15:26:39.215Z,20.70
2022-08-28T15:29:05.525Z,20.78
2022-08-28T15:31:32.029Z,21.04
2022-08-28T15:33:58.528Z,21.11
2022-08-28T15:36:24.794Z,21.17
2022-08-28T15:38:51.096Z,21.35
2022-08-28T15:41:17.393Z,21.40
2022-08-28T15:43:47.721Z,21.09
2022-08-28T15:46:14.502Z,20.87
2022-08-28T15:48:40.917Z,21.03
2022-08-28T15:51:07.888Z,21.31
2022-08-28T15:53:34.195Z,21.59
2022-08-28T15:56:00.485Z,21.75
2022-08-28T15:58:26.794Z,21.58
2022-08-28T16:00:53.208Z,21.65
2022-08-28T16:03:19.584Z,21.95
2022-08-28T16:05:45.942Z,21.54
2022-08-28T16:08:14.740Z,21.35
2022-08-28T16:10:41.094Z,21.34
2022-08-28T16:13:07.397Z,21.34
2022-08-28T16:15:33.692Z,21.53
2022-08-28T16:18:00.248Z,21.66
2022-08-28T16:20:26.823Z,21.54
2022-08-28T16:22:55.600Z,21.51
2022-08-28T16:25:22.058Z,21.39
2022-08-28T16:27:48.558Z,21.05
2022-08-28T16:30:15.654Z,21.13
2022-08-28T16:32:42.450Z,21.43
2022-08-28T16:35:13.634Z,21.72
2022-08-28T16:37:40.333Z,21.97
2022-08-28T16:40:06.731Z,21.92
2022-08-28T16:42:33.058Z,22.00
2022-08-28T16:44:59.317Z,22.01
2022-08-28T16:47:25.592Z,22.07
2022-08-28T16:49:51.869Z,21.95
2022-08-28T16:52:18.234Z,21.86
2022-08-28T16:54:48.346Z,21.97
2022-08-28T16:57:15.103Z,21.81
2022-08-28T16:59:41.377Z,21.68
2022-08-28T17:02:08.092Z,21.67
2022-08-28T17:04:39.751Z,21.75
2022-08-28T17:07:06.124Z,21.66
2022-08-28T17:09:32.464Z,21.53
2022-08-28T17:11:58.976Z,21.64
2022-08-28T17:14:26.010Z,21.60
2022-08-28T17:16:52.302Z,21.59
2022-08-28T17:19:18.573Z,21.50
2022-08-28T17:21:44.941Z,21.45
2022-08-28T17:24:11.235Z,21.36
2022-08-28T17:26:37.929Z,21.06
2022-08-28T17:29:08.217Z,20.85
2022-08-28T17:31:34.754Z,20.76
2022-08-28T17:34:01.117Z,20.63
2022-08-28T17:36:33.305Z,20.51
2022-08-28T17:39:00.533Z,20.34
2022-08-28T17:41:27.614Z,20.23
2022-08-28T17:43:53.868Z,20.09
2022-08-28T17:46:20.307Z,19.97
2022-08-28T17:48:54.548Z,19.83
2022-08-28T17:51:33.743Z,19.70
2022-08-28T17:54:09.746Z,19.58
2022-08-28T17:56:38.345Z,19.48
2022-08-28T17:59:04.717Z,19.34
2022-08-28T18:01:31.457Z,19.27
2022-08-28T18:03:57.808Z,19.21
2022-08-28T18:06:24.140Z,19.13
2022-08-28T18:08:50.637Z,19.07
2022-08-28T18:11:16.923Z,18.98
2022-08-28T18:13:43.257Z,18.92
2022-08-28T18:16:09.671Z,18.86
2022-08-28T18:18:36.611Z,18.80
2022-08-28T18:21:03.036Z,18.72
2022-08-28T18:23:29.601Z,18.69
2022-08-28T18:25:55.929Z,18.63
2022-08-28T18:28:22.518Z,18.55
2022-08-28T18:30:51.779Z,18.48
2022-08-28T18:33:18.304Z,18.41
2022-08-28T18:35:49.206Z,18.35
2022-08-28T18:38:15.984Z,18.28
2022-08-28T18:40:42.290Z,18.24
2022-08-28T18:43:08.542Z,18.21
2022-08-28T18:45:34.817Z,18.14
2022-08-28T18:48:01.154Z,18.08
2022-08-28T18:50:27.652Z,18.03
2022-08-28T18:52:53.975Z,17.98
2022-08-28T18:55:20.317Z,17.93
2022-08-28T18:57:46.778Z,17.89
2022-08-28T19:00:13.708Z,17.83
2022-08-28T19:02:41.787Z,17.78
2022-08-28T19:05:08.229Z,17.74
2022-08-28T19:07:34.738Z,17.71
2022-08-28T19:10:01.128Z,17.70
2022-08-28T19:12:27.385Z,17.72
2022-08-28T19:14:53.710Z,17.72
2022-08-28T19:17:21.184Z,17.69
2022-08-28T19:19:47.593Z,17.65
2022-08-28T19:22:13.880Z,17.60
2022-08-28T19:24:40.343Z,17.52
2022-08-28T19:27:06.828Z,17.48
2022-08-28T19:29:33.136Z,17.50
2022-08-28T19:31:59.776Z,17.49
2022-08-28T19:34:26.074Z,17.46
2022-08-28T19:36:52.331Z,17.43
2022-08-28T19:39:20.873Z,17.39
2022-08-28T19:41:47.419Z,17.34
2022-08-28T19:44:13.893Z,17.30
2022-08-28T19:46:40.251Z,17.26
2022-08-28T19:49:06.749Z,17.26
2022-08-28T19:51:32.990Z,17.23
2022-08-28T19:53:59.559Z,17.20
2022-08-28T19:56:25.903Z,17.16
2022-08-28T19:58:52.367Z,17.11
2022-08-28T20:01:18.745Z,17.06
2022-08-28T20:03:45.050Z,17.01
2022-08-28T20:06:11.388Z,16.95
2022-08-28T20:08:37.822Z,16.93
2022-08-28T20:11:04.132Z,16.89
2022-08-28T20:13:30.533Z,16.86
2022-08-28T20:15:57.035Z,16.83
2022-08-28T20:18:23.490Z,16.78
2022-08-28T20:20:49.745Z,16.75
2022-08-28T20:23:16.074Z,16.68
2022-08-28T20:25:42.494Z,16.66
2022-08-28T20:28:11.570Z,16.63
2022-08-28T20:30:38.159Z,16.58
2022-08-28T20:33:04.514Z,16.54
2022-08-28T20:35:35.242Z,16.50
2022-08-28T20:38:01.726Z,16.48
2022-08-28T20:40:28.109Z,16.47
2022-08-28T20:42:54.406Z,16.42
2022-08-28T20:45:20.712Z,16.37
2022-08-28T20:47:47.206Z,16.35
2022-08-28T20:50:13.674Z,16.31
2022-08-28T20:52:40.009Z,16.25
2022-08-28T20:55:06.364Z,16.19
2022-08-28T20:57:32.734Z,16.17
2022-08-28T21:00:03.466Z,16.13
2022-08-28T21:02:32.162Z,16.08
2022-08-28T21:04:58.743Z,16.05
2022-08-28T21:07:25.155Z,16.02
2022-08-28T21:10:06.762Z,16.00
2022-08-28T21:12:33.978Z,15.94
2022-08-28T21:15:00.428Z,15.89
2022-08-28T21:17:29.679Z,15.80
2022-08-28T21:19:56.967Z,15.75
2022-08-28T21:22:24.073Z,15.73
2022-08-28T21:24:50.643Z,15.67
2022-08-28T21:27:18.583Z,15.65
2022-08-28T21:29:45.247Z,15.61
2022-08-28T21:32:11.614Z,15.58
2022-08-28T21:34:38.046Z,15.53
2022-08-28T21:37:04.446Z,15.50
2022-08-28T21:39:30.713Z,15.49
2022-08-28T21:41:57.122Z,15.46
2022-08-28T21:44:23.429Z,15.42
2022-08-28T21:46:49.778Z,15.42
2022-08-28T21:49:16.090Z,15.38
2022-08-28T21:51:42.425Z,15.37
2022-08-28T21:54:08.749Z,15.33
2022-08-28T21:56:35.092Z,15.30
2022-08-28T21:59:01.541Z,15.25
2022-08-28T22:01:27.932Z,15.19
2022-08-28T22:03:54.225Z,15.16
2022-08-28T22:06:20.607Z,15.13
2022-08-28T22:08:47.064Z,15.09
2022-08-28T22:11:13.372Z,15.08
2022-08-28T22:13:42.117Z,15.04
2022-08-28T22:16:09.755Z,15.00
2022-08-28T22:18:36.258Z,14.98
2022-08-28T22:21:02.796Z,14.94
2022-08-28T22:23:29.146Z,14.88
2022-08-28T22:25:55.522Z,14.85
2022-08-28T22:28:21.814Z,14.82
2022-08-28T22:30:48.286Z,14.80
2022-08-28T22:33:15.634Z,14.77
2022-08-28T22:35:42.072Z,14.75
2022-08-28T22:38:08.352Z,14.69
2022-08-28T22:40:34.854Z,14.65
2022-08-28T22:43:01.509Z,14.64
2022-08-28T22:45:27.759Z,14.59
2022-08-28T22:47:54.091Z,14.54
2022-08-28T22:50:20.417Z,14.49
2022-08-28T22:52:46.787Z,14.47
2022-08-28T22:55:13.213Z,14.44
2022-08-28T22:57:39.718Z,14.41
2022-08-28T23:00:06.443Z,14.36
2022-08-28T23:02:32.819Z,14.32
2022-08-28T23:04:59.197Z,14.30
2022-08-28T23:07:25.595Z,14.26
2022-08-28T23:09:51.900Z,14.25
2022-08-28T23:12:18.453Z,14.21
2022-08-28T23:14:48.358Z,14.18
2022-08-28T23:17:15.249Z,14.16
2022-08-28T23:19:43.409Z,14.13
2022-08-28T23:22:12.836Z,14.07
2022-08-28T23:24:39.267Z,14.04
2022-08-28T23:27:34.332Z,14.03
2022-08-28T23:29:53.331Z,14.00
2022-08-28T23:32:19.913Z,13.96
2022-08-28T23:34:46.396Z,13.94
2022-08-28T23:37:12.987Z,13.91
2022-08-28T23:39:39.298Z,13.90
2022-08-28T23:42:05.607Z,13.85
2022-08-28T23:44:32.417Z,13.83
2022-08-28T23:46:59.416Z,13.83
2022-08-28T23:49:27.100Z,13.81
2022-08-28T23:51:55.678Z,13.80
2022-08-28T23:54:22.033Z,13.78
2022-08-28T23:56:48.362Z,13.77
2022-08-28T23:59:17.328Z,13.77
